createdAt,value
2018-09-21T00:02:05.064Z,56.10
2018-09-21T00:04:33.575Z,56.10
2018-09-21T00:07:02.059Z,56.10
2018-09-21T00:09:30.536Z,56.00
2018-09-21T00:11:59.901Z,56.00
2018-09-21T00:14:28.730Z,56.00
2018-09-21T00:16:57.244Z,56.10
2018-09-21T00:19:25.784Z,56.10
2018-09-21T00:21:54.300Z,56.20
2018-09-21T00:24:22.792Z,56.20
2018-09-21T00:26:51.907Z,56.30
2018-09-21T00:29:20.408Z,56.30
2018-09-21T00:31:48.936Z,56.30
2018-09-21T00:34:17.524Z,56.30
2018-09-21T00:36:46.235Z,56.30
2018-09-21T00:39:14.706Z,56.30
2018-09-21T00:41:43.218Z,56.30
2018-09-21T00:44:11.704Z,56.30
2018-09-21T00:46:40.215Z,56.30
2018-09-21T00:49:08.685Z,56.30
2018-09-21T00:51:37.165Z,56.30
2018-09-21T00:54:05.599Z,56.30
2018-09-21T00:56:34.034Z,56.20
2018-09-21T00:59:02.488Z,56.30
2018-09-21T01:01:30.911Z,56.20
2018-09-21T01:03:59.377Z,56.30
2018-09-21T01:06:27.826Z,56.30
2018-09-21T01:08:56.293Z,56.20
2018-09-21T01:11:24.727Z,56.20
2018-09-21T01:13:53.191Z,56.10
2018-09-21T01:16:21.621Z,56.00
2018-09-21T01:18:50.089Z,55.90
2018-09-21T01:21:18.536Z,55.90
2018-09-21T01:23:47.043Z,56.00
2018-09-21T01:26:15.537Z,55.80
2018-09-21T01:28:44.092Z,55.70
2018-09-21T01:31:12.611Z,55.70
2018-09-21T01:33:41.079Z,55.60
2018-09-21T01:36:09.703Z,55.60
2018-09-21T01:38:38.184Z,56.10
2018-09-21T01:41:07.483Z,55.50
2018-09-21T01:43:35.983Z,55.40
2018-09-21T01:46:04.436Z,55.40
2018-09-21T01:48:32.997Z,55.30
2018-09-21T01:51:01.750Z,55.30
2018-09-21T01:53:30.181Z,55.20
2018-09-21T01:55:58.812Z,55.30
2018-09-21T01:58:27.247Z,55.20
2018-09-21T02:00:55.712Z,55.20
2018-09-21T02:03:24.141Z,55.20
2018-09-21T02:05:52.615Z,55.20
2018-09-21T02:08:21.036Z,55.20
2018-09-21T02:10:49.494Z,55.20
2018-09-21T02:13:17.950Z,55.10
2018-09-21T02:15:46.459Z,55.20
2018-09-21T02:18:14.905Z,55.10
2018-09-21T02:20:43.355Z,55.20
2018-09-21T02:23:11.785Z,55.00
2018-09-21T02:25:40.338Z,55.10
2018-09-21T02:28:08.764Z,55.10
2018-09-21T02:30:37.242Z,55.10
2018-09-21T02:33:05.699Z,55.00
2018-09-21T02:35:34.150Z,55.00
2018-09-21T02:38:02.579Z,55.00
2018-09-21T02:40:31.011Z,55.10
2018-09-21T02:42:59.481Z,55.10
2018-09-21T02:45:27.914Z,55.10
2018-09-21T02:47:56.371Z,55.00
2018-09-21T02:50:24.801Z,55.10
2018-09-21T02:52:53.295Z,55.10
2018-09-21T02:55:21.761Z,55.20
2018-09-21T02:57:50.346Z,55.10
2018-09-21T03:00:18.975Z,55.10
2018-09-21T03:02:47.352Z,55.10
2018-09-21T03:05:15.794Z,55.10
2018-09-21T03:07:44.284Z,55.10
2018-09-21T03:10:12.749Z,55.10
2018-09-21T03:12:41.265Z,55.10
2018-09-21T03:15:09.682Z,55.10
2018-09-21T03:17:38.168Z,55.10
2018-09-21T03:20:06.886Z,55.10
2018-09-21T03:22:35.327Z,55.10
2018-09-21T03:25:03.814Z,55.10
2018-09-21T03:27:32.315Z,55.10
2018-09-21T03:30:00.765Z,55.10
2018-09-21T03:32:29.266Z,55.10
2018-09-21T03:34:57.698Z,55.10
2018-09-21T03:37:26.183Z,55.10
2018-09-21T03:39:54.688Z,55.10
2018-09-21T03:42:23.136Z,55.10
2018-09-21T03:44:51.607Z,55.10
2018-09-21T03:47:20.043Z,55.20
2018-09-21T03:49:48.574Z,55.20
2018-09-21T03:52:16.989Z,55.20
2018-09-21T03:54:45.450Z,55.20
2018-09-21T03:57:13.937Z,55.80
2018-09-21T03:59:42.411Z,55.20
2018-09-21T04:02:10.904Z,55.70
2018-09-21T04:04:41.864Z,55.10
2018-09-21T04:07:10.831Z,55.10
2018-09-21T04:09:39.292Z,55.20
2018-09-21T04:12:07.771Z,55.20
2018-09-21T04:14:36.410Z,55.10
2018-09-21T04:17:04.929Z,55.10
2018-09-21T04:19:33.372Z,55.10
2018-09-21T04:22:01.882Z,55.10
2018-09-21T04:24:30.384Z,55.10
2018-09-21T04:26:58.910Z,55.10
2018-09-21T04:29:27.361Z,55.20
2018-09-21T04:31:55.791Z,55.20
2018-09-21T04:34:24.412Z,55.30
2018-09-21T04:36:53.090Z,55.30
2018-09-21T04:39:21.614Z,54.80
2018-09-21T04:41:51.075Z,55.30
2018-09-21T04:44:19.704Z,55.40
2018-09-21T04:46:48.238Z,55.40
2018-09-21T04:49:17.204Z,55.40
2018-09-21T04:51:47.735Z,55.40
2018-09-21T04:54:16.831Z,55.40
2018-09-21T04:56:45.270Z,55.40
2018-09-21T04:59:13.733Z,55.50
2018-09-21T05:01:42.198Z,55.50
2018-09-21T05:04:10.675Z,55.50
2018-09-21T05:06:39.118Z,55.50
2018-09-21T05:09:09.089Z,55.50
2018-09-21T05:11:37.516Z,55.50
2018-09-21T05:14:06.039Z,55.50
2018-09-21T05:16:34.529Z,55.60
2018-09-21T05:19:03.008Z,55.70
2018-09-21T05:21:31.428Z,55.70
2018-09-21T05:23:59.909Z,55.70
2018-09-21T05:26:28.411Z,55.70
2018-09-21T05:28:56.914Z,55.70
2018-09-21T05:31:25.376Z,55.70
2018-09-21T05:33:54.121Z,55.70
2018-09-21T05:36:22.506Z,55.80
2018-09-21T05:38:51.011Z,55.80
2018-09-21T05:41:19.460Z,55.80
2018-09-21T05:43:48.063Z,55.90
2018-09-21T05:46:16.636Z,55.90
2018-09-21T05:48:45.112Z,56.00
2018-09-21T05:51:13.593Z,56.50
2018-09-21T05:53:42.046Z,56.00
2018-09-21T05:56:10.574Z,56.00
2018-09-21T05:58:39.023Z,56.10
2018-09-21T06:01:07.605Z,56.10
2018-09-21T06:03:36.140Z,56.10
2018-09-21T06:06:05.321Z,56.10
2018-09-21T06:08:34.154Z,56.10
2018-09-21T06:11:02.842Z,56.10
2018-09-21T06:13:31.462Z,56.00
2018-09-21T06:16:00.027Z,56.10
2018-09-21T06:18:28.452Z,56.00
2018-09-21T06:20:57.012Z,56.00
2018-09-21T06:23:26.616Z,56.00
2018-09-21T06:25:55.066Z,56.00
2018-09-21T06:28:23.705Z,56.00
2018-09-21T06:30:52.617Z,56.10
2018-09-21T06:33:21.115Z,56.10
2018-09-21T06:35:49.594Z,56.10
2018-09-21T06:38:18.078Z,56.10
2018-09-21T06:40:46.516Z,56.10
2018-09-21T06:43:14.984Z,56.10
2018-09-21T06:45:43.441Z,56.20
2018-09-21T06:48:12.038Z,56.30
2018-09-21T06:50:40.514Z,56.80
2018-09-21T06:53:09.019Z,56.30
2018-09-21T06:55:37.460Z,56.20
2018-09-21T06:58:06.116Z,56.30
2018-09-21T07:00:34.597Z,56.20
2018-09-21T07:03:03.080Z,56.20
2018-09-21T07:05:31.508Z,56.10
2018-09-21T07:08:00.139Z,56.20
2018-09-21T07:10:28.607Z,56.20
2018-09-21T07:12:57.091Z,56.20
2018-09-21T07:15:25.603Z,56.20
2018-09-21T07:17:54.115Z,56.30
2018-09-21T07:20:22.631Z,56.30
2018-09-21T07:22:51.158Z,56.30
2018-09-21T07:25:19.719Z,56.30
2018-09-21T07:27:48.171Z,56.20
2018-09-21T07:30:16.689Z,56.30
2018-09-21T07:32:45.188Z,56.20
2018-09-21T07:35:13.712Z,56.10
2018-09-21T07:37:42.257Z,56.00
2018-09-21T07:40:10.781Z,55.90
2018-09-21T07:42:39.995Z,55.80
2018-09-21T07:45:08.517Z,55.80
2018-09-21T07:47:37.059Z,55.60
2018-09-21T07:50:05.687Z,55.60
2018-09-21T07:52:34.155Z,55.60
2018-09-21T07:55:02.660Z,55.50
2018-09-21T07:57:31.172Z,55.40
2018-09-21T07:59:59.695Z,55.90
2018-09-21T08:02:28.195Z,55.30
2018-09-21T08:04:56.809Z,55.20
2018-09-21T08:07:25.247Z,55.10
2018-09-21T08:09:53.746Z,55.20
2018-09-21T08:12:22.244Z,55.70
2018-09-21T08:14:50.731Z,55.10
2018-09-21T08:17:19.238Z,54.90
2018-09-21T08:19:47.685Z,54.90
2018-09-21T08:22:16.155Z,54.90
2018-09-21T08:24:44.643Z,55.00
2018-09-21T08:27:15.595Z,55.00
2018-09-21T08:29:44.132Z,55.60
2018-09-21T08:32:12.648Z,55.10
2018-09-21T08:34:41.208Z,55.00
2018-09-21T08:37:09.923Z,55.60
2018-09-21T08:39:38.421Z,54.70
2018-09-21T08:42:11.866Z,54.70
2018-09-21T08:44:45.995Z,54.70
2018-09-21T08:47:16.266Z,54.70
2018-09-21T08:49:46.228Z,54.80
2018-09-21T08:52:15.283Z,54.80
2018-09-21T08:54:44.620Z,54.80
2018-09-21T08:57:14.334Z,54.90
2018-09-21T08:59:43.729Z,54.30
2018-09-21T09:02:12.303Z,54.20
2018-09-21T09:04:40.770Z,54.10
2018-09-21T09:07:09.278Z,54.10
2018-09-21T09:09:37.772Z,54.00
2018-09-21T09:12:06.228Z,54.00
2018-09-21T09:14:34.916Z,54.00
2018-09-21T09:17:03.504Z,54.00
2018-09-21T09:19:32.809Z,53.90
2018-09-21T09:22:01.346Z,53.90
2018-09-21T09:24:29.857Z,53.60
2018-09-21T09:26:58.324Z,53.50
2018-09-21T09:29:26.787Z,53.30
2018-09-21T09:31:55.274Z,53.40
2018-09-21T09:34:23.927Z,53.30
2018-09-21T09:36:52.459Z,53.30
2018-09-21T09:39:20.955Z,53.20
2018-09-21T09:41:49.409Z,53.10
2018-09-21T09:44:17.871Z,53.10
2018-09-21T09:46:46.334Z,53.10
2018-09-21T09:49:15.593Z,53.10
2018-09-21T09:51:49.988Z,53.00
2018-09-21T09:54:22.258Z,53.20
2018-09-21T09:56:55.266Z,53.40
2018-09-21T09:59:27.098Z,53.60
2018-09-21T10:02:01.335Z,53.90
2018-09-21T10:04:32.251Z,54.20
2018-09-21T10:07:01.413Z,54.30
2018-09-21T10:09:30.736Z,54.30
2018-09-21T10:11:59.924Z,54.30
2018-09-21T10:14:28.485Z,54.40
2018-09-21T10:16:57.279Z,54.40
2018-09-21T10:19:27.186Z,54.30
2018-09-21T10:21:55.759Z,54.30
2018-09-21T10:24:24.305Z,54.20
2018-09-21T10:26:53.474Z,54.30
2018-09-21T10:29:24.132Z,54.50
2018-09-21T10:31:54.050Z,54.60
2018-09-21T10:34:23.680Z,54.60
2018-09-21T10:36:53.517Z,54.50
2018-09-21T10:39:28.938Z,54.50
2018-09-21T10:42:02.810Z,54.40
2018-09-21T10:44:41.983Z,54.30
2018-09-21T10:47:11.214Z,54.50
2018-09-21T10:49:40.481Z,54.50
2018-09-21T10:52:09.118Z,54.50
2018-09-21T10:54:37.593Z,54.40
2018-09-21T10:57:06.096Z,54.70
2018-09-21T10:59:34.641Z,55.10
2018-09-21T11:02:03.107Z,55.50
2018-09-21T11:04:31.702Z,55.60
2018-09-21T11:07:00.159Z,56.40
2018-09-21T11:09:28.629Z,57.40
2018-09-21T11:11:57.170Z,58.40
2018-09-21T11:14:25.752Z,59.00
2018-09-21T11:16:55.344Z,59.50
2018-09-21T11:19:23.995Z,60.10
2018-09-21T11:21:52.602Z,60.60
2018-09-21T11:24:21.141Z,60.90
2018-09-21T11:26:51.049Z,61.10
2018-09-21T11:29:19.816Z,61.20
2018-09-21T11:31:48.270Z,61.20
2018-09-21T11:34:17.027Z,61.20
2018-09-21T11:36:46.381Z,61.00
2018-09-21T11:39:16.131Z,60.90
2018-09-21T11:41:44.686Z,60.80
2018-09-21T11:44:13.231Z,60.60
2018-09-21T11:46:41.788Z,60.60
2018-09-21T11:49:10.697Z,60.60
2018-09-21T11:51:39.234Z,60.50
2018-09-21T11:54:07.850Z,60.60
2018-09-21T11:56:36.418Z,60.60
2018-09-21T11:59:04.944Z,60.60
2018-09-21T12:01:33.460Z,60.60
2018-09-21T12:04:01.973Z,60.70
2018-09-21T12:06:30.495Z,60.80
2018-09-21T12:09:00.269Z,60.70
2018-09-21T12:11:29.884Z,60.90
2018-09-21T12:13:59.647Z,60.80
2018-09-21T12:16:28.291Z,60.70
2018-09-21T12:18:56.939Z,60.60
2018-09-21T12:21:25.466Z,60.60
2018-09-21T12:23:54.000Z,60.70
2018-09-21T12:26:23.970Z,60.90
2018-09-21T12:28:53.426Z,61.10
2018-09-21T12:31:23.614Z,61.20
2018-09-21T12:33:52.422Z,61.40
2018-09-21T12:36:23.285Z,61.60
2018-09-21T12:38:51.972Z,60.80
2018-09-21T12:41:21.808Z,61.30
2018-09-21T12:43:50.302Z,61.30
2018-09-21T12:46:28.380Z,61.40
2018-09-21T12:49:05.296Z,61.50
2018-09-21T12:51:35.196Z,61.60
2018-09-21T12:54:03.715Z,61.50
2018-09-21T12:56:32.242Z,61.70
2018-09-21T12:59:00.791Z,61.80
2018-09-21T13:01:29.375Z,61.90
2018-09-21T13:03:59.451Z,62.10
2018-09-21T13:06:28.031Z,62.00
2018-09-21T13:08:56.846Z,62.10
2018-09-21T13:11:26.444Z,62.20
2018-09-21T13:13:55.022Z,62.20
2018-09-21T13:16:23.616Z,62.10
2018-09-21T13:18:52.105Z,62.20
2018-09-21T13:21:20.667Z,62.10
2018-09-21T13:23:49.164Z,62.10
2018-09-21T13:26:17.692Z,62.20
2018-09-21T13:28:46.204Z,62.10
2018-09-21T13:31:14.698Z,62.60
2018-09-21T13:33:43.358Z,63.10
2018-09-21T13:36:11.859Z,62.30
2018-09-21T13:38:40.368Z,62.40
2018-09-21T13:41:08.857Z,62.40
2018-09-21T13:43:37.415Z,62.40
2018-09-21T13:46:06.132Z,62.30
2018-09-21T13:48:34.975Z,62.30
2018-09-21T13:51:03.427Z,62.40
2018-09-21T13:53:31.938Z,62.30
2018-09-21T13:56:00.421Z,62.30
2018-09-21T13:58:28.890Z,62.40
2018-09-21T14:00:57.514Z,62.50
2018-09-21T14:03:26.071Z,62.50
2018-09-21T14:05:54.516Z,63.20
2018-09-21T14:08:23.053Z,62.50
2018-09-21T14:10:51.528Z,62.40
2018-09-21T14:13:20.236Z,62.30
2018-09-21T14:15:48.681Z,62.10
2018-09-21T14:18:17.246Z,62.00
2018-09-21T14:20:45.797Z,62.00
2018-09-21T14:23:14.338Z,61.90
2018-09-21T14:25:42.830Z,61.80
2018-09-21T14:28:11.379Z,61.70
2018-09-21T14:30:39.862Z,61.70
2018-09-21T14:33:08.409Z,61.60
2018-09-21T14:35:36.977Z,62.30
2018-09-21T14:38:05.752Z,61.50
2018-09-21T14:40:34.253Z,61.30
2018-09-21T14:43:03.155Z,61.20
2018-09-21T14:45:31.762Z,60.90
2018-09-21T14:48:00.240Z,60.80
2018-09-21T14:50:28.810Z,60.80
2018-09-21T14:52:57.299Z,60.60
2018-09-21T14:55:25.923Z,60.30
2018-09-21T14:57:54.397Z,60.30
2018-09-21T15:00:22.849Z,60.10
2018-09-21T15:02:51.294Z,60.00
2018-09-21T15:05:19.824Z,59.90
2018-09-21T15:07:48.387Z,60.50
2018-09-21T15:10:16.954Z,59.40
2018-09-21T15:12:45.431Z,59.40
2018-09-21T15:15:13.931Z,59.00
2018-09-21T15:17:42.542Z,59.00
2018-09-21T15:20:11.019Z,58.90
2018-09-21T15:22:39.795Z,58.60
2018-09-21T15:25:08.297Z,58.70
2018-09-21T15:27:36.780Z,59.30
2018-09-21T15:30:05.430Z,58.50
2018-09-21T15:32:33.883Z,58.30
2018-09-21T15:35:02.310Z,58.00
2018-09-21T15:37:30.775Z,58.00
2018-09-21T15:39:59.234Z,57.90
2018-09-21T15:42:27.750Z,57.90
2018-09-21T15:44:56.176Z,57.90
2018-09-21T15:47:24.651Z,57.90
2018-09-21T15:49:53.057Z,58.10
2018-09-21T15:52:21.531Z,58.30
2018-09-21T15:54:49.988Z,58.20
2018-09-21T15:57:18.465Z,58.10
2018-09-21T15:59:46.947Z,58.10
2018-09-21T16:02:15.414Z,58.00
2018-09-21T16:04:43.937Z,57.90
2018-09-21T16:07:12.461Z,57.90
2018-09-21T16:09:40.895Z,57.90
2018-09-21T16:12:09.404Z,57.90
2018-09-21T16:14:37.887Z,57.80
2018-09-21T16:17:06.458Z,57.80
2018-09-21T16:19:34.962Z,57.70
2018-09-21T16:22:03.436Z,57.70
2018-09-21T16:24:31.915Z,57.40
2018-09-21T16:27:00.347Z,57.60
2018-09-21T16:29:28.825Z,57.60
2018-09-21T16:31:57.262Z,57.60
2018-09-21T16:34:25.727Z,57.60
2018-09-21T16:36:54.203Z,57.50
2018-09-21T16:39:22.692Z,57.50
2018-09-21T16:41:51.171Z,57.40
2018-09-21T16:44:19.674Z,57.30
2018-09-21T16:46:48.095Z,57.20
2018-09-21T16:49:16.607Z,57.20
2018-09-21T16:51:45.082Z,57.00
2018-09-21T16:54:13.570Z,56.90
2018-09-21T16:56:42.067Z,57.60
2018-09-21T16:59:10.646Z,56.90
2018-09-21T17:01:39.103Z,56.80
2018-09-21T17:04:07.671Z,56.70
2018-09-21T17:06:36.206Z,56.70
2018-09-21T17:09:07.485Z,56.70
2018-09-21T17:11:35.948Z,56.70
2018-09-21T17:14:04.430Z,56.70
2018-09-21T17:16:32.896Z,56.80
2018-09-21T17:19:01.412Z,56.80
2018-09-21T17:21:29.901Z,56.90
2018-09-21T17:23:58.452Z,56.80
2018-09-21T17:26:26.976Z,56.90
2018-09-21T17:28:55.489Z,56.90
2018-09-21T17:31:24.048Z,56.90
2018-09-21T17:33:52.685Z,56.70
2018-09-21T17:36:21.267Z,56.70
2018-09-21T17:38:49.821Z,56.60
2018-09-21T17:41:18.392Z,56.40
2018-09-21T17:43:46.895Z,56.40
2018-09-21T17:46:15.428Z,56.40
2018-09-21T17:48:43.948Z,56.40
2018-09-21T17:51:12.448Z,56.40
2018-09-21T17:53:40.948Z,56.50
2018-09-21T17:56:09.432Z,56.50
2018-09-21T17:58:37.923Z,56.50
2018-09-21T18:01:06.534Z,56.50
2018-09-21T18:03:34.974Z,56.50
2018-09-21T18:06:03.518Z,56.50
2018-09-21T18:08:32.026Z,56.50
2018-09-21T18:11:00.530Z,56.50
2018-09-21T18:13:29.019Z,56.50
2018-09-21T18:15:57.565Z,56.50
2018-09-21T18:18:26.015Z,56.50
2018-09-21T18:20:54.507Z,56.40
2018-09-21T18:23:22.974Z,56.30
2018-09-21T18:25:51.505Z,56.20
2018-09-21T18:28:19.958Z,56.10
2018-09-21T18:30:48.427Z,56.00
2018-09-21T18:33:17.166Z,55.90
2018-09-21T18:35:45.677Z,55.90
2018-09-21T18:38:14.543Z,55.80
2018-09-21T18:40:43.007Z,55.80
2018-09-21T18:43:11.452Z,55.70
2018-09-21T18:45:39.950Z,55.70
2018-09-21T18:48:08.445Z,55.60
2018-09-21T18:50:36.983Z,55.50
2018-09-21T18:53:05.607Z,55.40
2018-09-21T18:55:34.063Z,55.50
2018-09-21T18:58:02.584Z,55.40
2018-09-21T19:00:31.124Z,55.30
2018-09-21T19:02:59.627Z,55.40
2018-09-21T19:05:28.210Z,55.40
2018-09-21T19:07:56.782Z,55.40
2018-09-21T19:10:25.399Z,55.30
2018-09-21T19:12:53.841Z,55.30
2018-09-21T19:15:22.340Z,55.40
2018-09-21T19:17:50.977Z,55.30
2018-09-21T19:20:19.588Z,55.20
2018-09-21T19:22:48.031Z,55.20
2018-09-21T19:25:16.534Z,55.30
2018-09-21T19:27:44.997Z,55.30
2018-09-21T19:30:13.718Z,55.30
2018-09-21T19:32:42.139Z,55.40
2018-09-21T19:35:10.622Z,55.40
2018-09-21T19:37:39.075Z,55.40
2018-09-21T19:40:07.630Z,55.40
2018-09-21T19:42:36.253Z,55.40
2018-09-21T19:45:04.938Z,55.40
2018-09-21T19:47:33.337Z,55.40
2018-09-21T19:50:01.791Z,55.40
2018-09-21T19:52:30.191Z,55.50
2018-09-21T19:54:58.998Z,55.50
2018-09-21T19:57:27.345Z,55.50
2018-09-21T19:59:55.754Z,55.50
2018-09-21T20:02:24.222Z,55.50
2018-09-21T20:04:52.690Z,55.50
2018-09-21T20:07:21.119Z,55.40
2018-09-21T20:09:49.532Z,55.40
2018-09-21T20:12:17.971Z,55.50
2018-09-21T20:14:46.518Z,55.60
2018-09-21T20:17:14.968Z,55.50
2018-09-21T20:19:43.459Z,55.50
2018-09-21T20:22:11.903Z,55.40
2018-09-21T20:24:42.120Z,55.40
2018-09-21T20:27:10.602Z,55.30
2018-09-21T20:29:39.134Z,55.80
2018-09-21T20:32:13.126Z,55.40
2018-09-21T20:34:41.686Z,55.50
2018-09-21T20:37:10.272Z,55.50
2018-09-21T20:39:38.800Z,55.80
2018-09-21T20:42:07.234Z,56.00
2018-09-21T20:44:35.682Z,56.00
2018-09-21T20:47:04.128Z,56.00
2018-09-21T20:49:32.692Z,56.10
2018-09-21T20:52:01.290Z,56.20
2018-09-21T20:54:29.772Z,56.30
2018-09-21T20:56:58.227Z,56.40
2018-09-21T20:59:26.736Z,56.40
2018-09-21T21:01:55.166Z,56.40
2018-09-21T21:04:23.633Z,56.40
2018-09-21T21:06:52.047Z,57.00
2018-09-21T21:09:20.615Z,56.60
2018-09-21T21:11:49.092Z,56.70
2018-09-21T21:14:17.587Z,56.70
2018-09-21T21:16:46.051Z,56.70
2018-09-21T21:19:14.545Z,56.60
2018-09-21T21:21:42.963Z,56.60
2018-09-21T21:24:11.437Z,56.70
2018-09-21T21:26:39.885Z,56.80
2018-09-21T21:29:08.330Z,56.90
2018-09-21T21:31:36.878Z,56.90
2018-09-21T21:34:05.474Z,57.00
2018-09-21T21:36:33.890Z,57.00
2018-09-21T21:39:02.376Z,57.00
2018-09-21T21:41:31.022Z,57.10
2018-09-21T21:43:59.518Z,57.10
2018-09-21T21:46:27.933Z,57.20
2018-09-21T21:48:56.445Z,57.20
2018-09-21T21:51:24.866Z,57.30
2018-09-21T21:53:53.292Z,57.30
2018-09-21T21:56:21.753Z,57.40
2018-09-21T21:58:50.303Z,57.50
2018-09-21T22:01:24.002Z,57.50
2018-09-21T22:03:52.495Z,58.10
2018-09-21T22:06:20.979Z,57.60
2018-09-21T22:08:49.570Z,57.50
2018-09-21T22:11:23.237Z,57.60
2018-09-21T22:13:56.894Z,57.60
2018-09-21T22:16:25.458Z,57.50
2018-09-21T22:18:54.145Z,57.50
2018-09-21T22:21:22.589Z,57.60
2018-09-21T22:23:51.226Z,58.20
2018-09-21T22:26:19.877Z,57.70
2018-09-21T22:28:48.518Z,58.20
2018-09-21T22:31:17.038Z,57.80
2018-09-21T22:33:45.753Z,58.00
2018-09-21T22:36:14.384Z,57.90
2018-09-21T22:38:42.879Z,57.90
2018-09-21T22:41:11.471Z,57.90
2018-09-21T22:43:40.082Z,57.90
2018-09-21T22:46:08.657Z,57.90
2018-09-21T22:48:37.321Z,57.90
2018-09-21T22:51:05.926Z,58.10
2018-09-21T22:53:34.432Z,58.10
2018-09-21T22:56:03.143Z,58.20
2018-09-21T22:58:31.762Z,58.20
2018-09-21T23:01:00.212Z,58.20
2018-09-21T23:03:28.841Z,58.30
2018-09-21T23:05:57.415Z,58.30
2018-09-21T23:08:26.141Z,58.30
2018-09-21T23:10:54.810Z,58.40
2018-09-21T23:13:23.472Z,58.50
2018-09-21T23:15:52.511Z,58.50
2018-09-21T23:18:21.200Z,58.50
2018-09-21T23:20:49.682Z,58.50
2018-09-21T23:23:18.152Z,58.70
2018-09-21T23:25:46.777Z,58.70
2018-09-21T23:28:15.335Z,58.70
2018-09-21T23:30:44.189Z,58.80
2018-09-21T23:33:12.775Z,58.90
2018-09-21T23:35:41.222Z,58.90
2018-09-21T23:38:10.876Z,58.90
2018-09-21T23:40:39.508Z,58.90
2018-09-21T23:43:09.307Z,58.90
2018-09-21T23:45:37.942Z,58.90
2018-09-21T23:48:06.612Z,58.90
2018-09-21T23:50:35.205Z,59.00
2018-09-21T23:53:03.650Z,58.90
2018-09-21T23:55:32.134Z,59.00
2018-09-21T23:58:00.603Z,59.10
